This is the latest recevied weather packets stored in our database for station/object JA7ZQY-10. If no packets are shown the sender has not sent any weather packets the latest 10 day(s).
| Time | Temp. | Humidity | Pressure | Rain* | Wind** | Luminosity | Snow |
|---|---|---|---|---|---|---|---|
| 1787807769 | 27.22° C | 74% | 1006.9 hPa | 0 mm | - | - | - |
| 1787807169 | 27.78° C | 68% | 1006.8 hPa | 0 mm | - | - | - |
| 1787806570 | 27.78° C | 71% | 1007 hPa | 0 mm | - | - | - |
| 1787805969 | 27.78° C | 70% | 1006.9 hPa | 0 mm | - | - | - |
| 1787805368 | 27.78° C | 69% | 1007 hPa | 0 mm | - | - | - |
| 1787804768 | 27.78° C | 67% | 1007 hPa | 0 mm | - | - | - |
| 1787804167 | 27.78° C | 67% | 1007.2 hPa | 0 mm | - | - | - |
| 1787803569 | 28.33° C | 67% | 1007.1 hPa | 0 mm | - | - | - |
| 1787802968 | 27.22° C | 71% | 1007.3 hPa | 0 mm | - | - | - |
| 1787802369 | 27.22° C | 72% | 1007.5 hPa | 0 mm | - | - | - |
| 1787801768 | 27.22° C | 72% | 1007.7 hPa | 0 mm | - | - | - |
| 1787801168 | 27.22° C | 71% | 1007.8 hPa | 0 mm | - | - | - |
| 1787800567 | 27.78° C | 69% | 1007.6 hPa | 0 mm | - | - | - |
| 1787799969 | 27.22° C | 72% | 1007.7 hPa | 0 mm | - | - | - |
| 1787799368 | 27.78° C | 67% | 1007.7 hPa | 0 mm | - | - | - |
| 1787798767 | 27.22° C | 71% | 1007.8 hPa | 0 mm | - | - | - |
| 1787798169 | 27.22° C | 71% | 1007.7 hPa | 0 mm | - | - | - |
| 1787797568 | 26.67° C | 71% | 1008.1 hPa | 0 mm | - | - | - |
| 1787796969 | 26.67° C | 71% | 1008 hPa | 0 mm | - | - | - |
| 1787796368 | 27.22° C | 70% | 1008.2 hPa | 0 mm | - | - | - |
| 1787795768 | 27.78° C | 64% | 1008.3 hPa | 0 mm | - | - | - |
| 1787795168 | 27.78° C | 64% | 1008.4 hPa | 0 mm | - | - | - |
| 1787794567 | 27.78° C | 64% | 1008.3 hPa | 0 mm | - | - | - |
| 1787793969 | 27.78° C | 65% | 1008.7 hPa | 0 mm | - | - | - |
| 1787793368 | 27.78° C | 64% | 1008.4 hPa | 0 mm | - | - | - |
* Rain latest hour (hover to see other rain measurements)
** Current wind speed in m/s (hover to see current wind gust speed)